sensor_id;sensor_type;location;lat;lon;timestamp;pressure;altitude;pressure_sealevel;temperature;humidity
59654;BME280;66556;52.008;5.432;2023-04-23T00:02:44;100765.0;;;25.14;30.7
59654;BME280;66556;52.008;5.432;2023-04-23T00:04:21;100767.0;;;25.76;30.09
59654;BME280;66556;52.008;5.432;2023-04-23T00:06:01;100763.0;;;25.92;29.64
59654;BME280;66556;52.008;5.432;2023-04-23T00:07:40;100769.0;;;26.3;29.29
59654;BME280;66556;52.008;5.432;2023-04-23T00:10:57;100768.0;;;26.66;28.35
59654;BME280;66556;52.008;5.432;2023-04-23T00:12:35;100767.0;;;26.77;28.37
59654;BME280;66556;52.008;5.432;2023-04-23T00:14:12;100763.0;;;26.71;28.14
59654;BME280;66556;52.008;5.432;2023-04-23T00:17:25;100763.0;;;26.35;28.82
59654;BME280;66556;52.008;5.432;2023-04-23T00:19:02;100758.0;;;26.1;28.88
59654;BME280;66556;52.008;5.432;2023-04-23T00:20:39;100755.0;;;25.94;29.36
59654;BME280;66556;52.008;5.432;2023-04-23T00:22:15;100750.0;;;26.08;29.16
59654;BME280;66556;52.008;5.432;2023-04-23T00:25:28;100749.0;;;26.06;29.09
59654;BME280;66556;52.008;5.432;2023-04-23T00:27:05;100749.0;;;26.48;28.61
59654;BME280;66556;52.008;5.432;2023-04-23T00:28:41;100742.0;;;26.51;28.42
59654;BME280;66556;52.008;5.432;2023-04-23T00:31:53;100747.0;;;26.39;28.46
59654;BME280;66556;52.008;5.432;2023-04-23T00:33:30;100744.0;;;26.32;28.85
59654;BME280;66556;52.008;5.432;2023-04-23T00:38:20;100743.0;;;26.58;28.56
59654;BME280;66556;52.008;5.432;2023-04-23T00:39:56;100739.0;;;26.32;29.16
59654;BME280;66556;52.008;5.432;2023-04-23T00:41:33;100734.0;;;26.1;29.21
59654;BME280;66556;52.008;5.432;2023-04-23T00:43:09;100730.0;;;25.55;30.04
59654;BME280;66556;52.008;5.432;2023-04-23T00:46:24;100725.0;;;25.98;29.19
59654;BME280;66556;52.008;5.432;2023-04-23T00:48:01;100727.0;;;26.04;29.42
59654;BME280;66556;52.008;5.432;2023-04-23T00:49:38;100723.0;;;25.73;29.49
59654;BME280;66556;52.008;5.432;2023-04-23T00:52:52;100725.0;;;26.11;29.06
59654;BME280;66556;52.008;5.432;2023-04-23T00:54:28;100719.0;;;26.16;28.98
59654;BME280;66556;52.008;5.432;2023-04-23T00:56:06;100708.0;;;25.71;29.78
59654;BME280;66556;52.008;5.432;2023-04-23T00:59:20;100708.0;;;26.3;29.12
59654;BME280;66556;52.008;5.432;2023-04-23T01:00:57;100710.0;;;26.16;29.28
59654;BME280;66556;52.008;5.432;2023-04-23T01:02:35;100707.0;;;26.41;29.03
59654;BME280;66556;52.008;5.432;2023-04-23T01:04:13;100702.0;;;26.35;29.31
59654;BME280;66556;52.008;5.432;2023-04-23T01:07:28;100700.0;;;26.62;29.15
59654;BME280;66556;52.008;5.432;2023-04-23T01:09:06;100702.0;;;26.58;29.2
59654;BME280;66556;52.008;5.432;2023-04-23T01:10:44;100700.0;;;26.85;28.96
59654;BME280;66556;52.008;5.432;2023-04-23T01:13:58;100697.0;;;26.89;29.12
59654;BME280;66556;52.008;5.432;2023-04-23T01:15:34;100696.0;;;27.04;28.88
59654;BME280;66556;52.008;5.432;2023-04-23T01:17:10;100687.0;;;27.09;28.8
59654;BME280;66556;52.008;5.432;2023-04-23T01:18:47;100688.0;;;26.91;29.2
59654;BME280;66556;52.008;5.432;2023-04-23T01:22:01;100687.0;;;26.5;29.81
59654;BME280;66556;52.008;5.432;2023-04-23T01:23:38;100682.0;;;26.65;29.59
59654;BME280;66556;52.008;5.432;2023-04-23T01:25:15;100678.0;;;26.74;29.52
59654;BME280;66556;52.008;5.432;2023-04-23T01:28:28;100674.0;;;26.75;29.47
59654;BME280;66556;52.008;5.432;2023-04-23T01:30:06;100670.0;;;26.57;30.07
59654;BME280;66556;52.008;5.432;2023-04-23T01:31:43;100664.0;;;25.86;31.13
59654;BME280;66556;52.008;5.432;2023-04-23T01:33:19;100671.0;;;26.42;30.15
59654;BME280;66556;52.008;5.432;2023-04-23T01:36:34;100669.0;;;26.42;30.09
59654;BME280;66556;52.008;5.432;2023-04-23T01:38:13;100675.0;;;25.63;31.34
59654;BME280;66556;52.008;5.432;2023-04-23T01:39:49;100672.0;;;26.34;30.61
59654;BME280;66556;52.008;5.432;2023-04-23T01:43:05;100671.0;;;26.33;30.01
59654;BME280;66556;52.008;5.432;2023-04-23T01:44:42;100668.0;;;26.35;29.97
59654;BME280;66556;52.008;5.432;2023-04-23T01:46:20;100664.0;;;26.22;30.76
59654;BME280;66556;52.008;5.432;2023-04-23T01:49:33;100665.0;;;25.63;31.45
59654;BME280;66556;52.008;5.432;2023-04-23T01:51:09;100668.0;;;26.03;31.1
59654;BME280;66556;52.008;5.432;2023-04-23T01:52:46;100667.0;;;26.13;30.59
59654;BME280;66556;52.008;5.432;2023-04-23T01:54:22;100666.0;;;26.24;30.59
59654;BME280;66556;52.008;5.432;2023-04-23T01:57:37;100661.0;;;26.64;29.93
59654;BME280;66556;52.008;5.432;2023-04-23T01:59:14;100660.0;;;26.65;30.22
59654;BME280;66556;52.008;5.432;2023-04-23T02:00:50;100658.0;;;27.07;29.64
59654;BME280;66556;52.008;5.432;2023-04-23T02:04:03;100664.0;;;25.75;31.36
59654;BME280;66556;52.008;5.432;2023-04-23T02:05:41;100667.0;;;26.05;31.25
59654;BME280;66556;52.008;5.432;2023-04-23T02:07:18;100661.0;;;25.98;31.27
59654;BME280;66556;52.008;5.432;2023-04-23T02:08:54;100661.0;;;26.5;30.62
59654;BME280;66556;52.008;5.432;2023-04-23T02:12:06;100658.0;;;26.72;30.16
59654;BME280;66556;52.008;5.432;2023-04-23T02:13:43;100658.0;;;26.13;31.26
59654;BME280;66556;52.008;5.432;2023-04-23T02:15:19;100656.0;;;25.74;31.93
59654;BME280;66556;52.008;5.432;2023-04-23T02:18:31;100652.0;;;26.39;30.7
59654;BME280;66556;52.008;5.432;2023-04-23T02:20:09;100651.0;;;26.08;31.33
59654;BME280;66556;52.008;5.432;2023-04-23T02:21:45;100652.0;;;25.85;31.6
59654;BME280;66556;52.008;5.432;2023-04-23T02:24:57;100649.0;;;26.24;31.05
59654;BME280;66556;52.008;5.432;2023-04-23T02:26:35;100649.0;;;26.36;30.98
59654;BME280;66556;52.008;5.432;2023-04-23T02:28:11;100646.0;;;26.14;31.24
59654;BME280;66556;52.008;5.432;2023-04-23T02:31:24;100645.0;;;25.92;31.49
59654;BME280;66556;52.008;5.432;2023-04-23T02:33:01;100645.0;;;25.65;32.03
59654;BME280;66556;52.008;5.432;2023-04-23T02:34:38;100640.0;;;25.74;32.51
59654;BME280;66556;52.008;5.432;2023-04-23T02:36:14;100642.0;;;26.29;31.49
59654;BME280;66556;52.008;5.432;2023-04-23T02:39:28;100636.0;;;25.61;32.17
59654;BME280;66556;52.008;5.432;2023-04-23T02:41:04;100638.0;;;26.6;31.02
59654;BME280;66556;52.008;5.432;2023-04-23T02:42:40;100638.0;;;26.02;31.57
59654;BME280;66556;52.008;5.432;2023-04-23T02:45:53;100639.0;;;26.34;30.86
59654;BME280;66556;52.008;5.432;2023-04-23T02:47:30;100639.0;;;26.06;31.45
59654;BME280;66556;52.008;5.432;2023-04-23T02:49:07;100634.0;;;26.36;31.32
59654;BME280;66556;52.008;5.432;2023-04-23T02:52:19;100636.0;;;26.93;30.22
59654;BME280;66556;52.008;5.432;2023-04-23T02:53:56;100640.0;;;26.31;30.98
59654;BME280;66556;52.008;5.432;2023-04-23T02:55:33;100637.0;;;26.92;29.94
59654;BME280;66556;52.008;5.432;2023-04-23T02:57:09;100642.0;;;25.91;31.54
59654;BME280;66556;52.008;5.432;2023-04-23T03:00:23;100639.0;;;26.28;31.1
59654;BME280;66556;52.008;5.432;2023-04-23T03:02:00;100637.0;;;26.01;31.64
59654;BME280;66556;52.008;5.432;2023-04-23T03:03:36;100632.0;;;26.43;31.08
59654;BME280;66556;52.008;5.432;2023-04-23T03:06:49;100632.0;;;26.84;30.73
59654;BME280;66556;52.008;5.432;2023-04-23T03:08:25;100638.0;;;25.75;31.88
59654;BME280;66556;52.008;5.432;2023-04-23T03:10:03;100643.0;;;25.68;32.33
59654;BME280;66556;52.008;5.432;2023-04-23T03:11:40;100642.0;;;26.01;31.48
59654;BME280;66556;52.008;5.432;2023-04-23T03:14:52;100646.0;;;26.16;31.25
59654;BME280;66556;52.008;5.432;2023-04-23T03:16:28;100641.0;;;25.93;31.78
59654;BME280;66556;52.008;5.432;2023-04-23T03:18:05;100644.0;;;25.72;32.1
59654;BME280;66556;52.008;5.432;2023-04-23T03:21:17;100639.0;;;25.59;32.24
59654;BME280;66556;52.008;5.432;2023-04-23T03:22:54;100633.0;;;25.74;31.92
59654;BME280;66556;52.008;5.432;2023-04-23T03:24:30;100635.0;;;25.56;31.99
59654;BME280;66556;52.008;5.432;2023-04-23T03:27:42;100634.0;;;25.57;31.94
59654;BME280;66556;52.008;5.432;2023-04-23T03:29:18;100634.0;;;26.55;30.48
59654;BME280;66556;52.008;5.432;2023-04-23T03:30:54;100626.0;;;26.66;30.17
59654;BME280;66556;52.008;5.432;2023-04-23T03:34:06;100627.0;;;26.87;29.89
59654;BME280;66556;52.008;5.432;2023-04-23T03:35:43;100621.0;;;26.74;29.98
59654;BME280;66556;52.008;5.432;2023-04-23T03:37:20;100621.0;;;26.65;29.94
59654;BME280;66556;52.008;5.432;2023-04-23T03:38:56;100624.0;;;26.71;29.31
59654;BME280;66556;52.008;5.432;2023-04-23T03:42:08;100626.0;;;26.97;29.46
59654;BME280;66556;52.008;5.432;2023-04-23T03:43:44;100617.0;;;25.82;30.83
59654;BME280;66556;52.008;5.432;2023-04-23T03:45:20;100616.0;;;25.61;31.4
59654;BME280;66556;52.008;5.432;2023-04-23T03:48:33;100622.0;;;25.58;30.98
59654;BME280;66556;52.008;5.432;2023-04-23T03:50:09;100628.0;;;25.99;30.32
59654;BME280;66556;52.008;5.432;2023-04-23T03:51:47;100625.0;;;26.44;29.82
59654;BME280;66556;52.008;5.432;2023-04-23T03:55:00;100622.0;;;26.7;29.41
59654;BME280;66556;52.008;5.432;2023-04-23T03:56:36;100614.0;;;26.64;29.32
59654;BME280;66556;52.008;5.432;2023-04-23T03:58:12;100617.0;;;26.32;30.16
59654;BME280;66556;52.008;5.432;2023-04-23T03:59:49;100613.0;;;26.45;29.65
59654;BME280;66556;52.008;5.432;2023-04-23T04:03:01;100614.0;;;27.26;28.69
59654;BME280;66556;52.008;5.432;2023-04-23T04:04:37;100618.0;;;26.18;29.84
59654;BME280;66556;52.008;5.432;2023-04-23T04:06:13;100618.0;;;26.41;29.4
59654;BME280;66556;52.008;5.432;2023-04-23T04:09:26;100617.0;;;26.3;29.54
59654;BME280;66556;52.008;5.432;2023-04-23T04:11:03;100612.0;;;26.6;29.42
59654;BME280;66556;52.008;5.432;2023-04-23T04:12:40;100616.0;;;26.37;29.51
59654;BME280;66556;52.008;5.432;2023-04-23T04:15:52;100611.0;;;27.18;28.46
59654;BME280;66556;52.008;5.432;2023-04-23T04:17:28;100615.0;;;27.52;27.87
59654;BME280;66556;52.008;5.432;2023-04-23T04:19:06;100615.0;;;27.64;27.21
59654;BME280;66556;52.008;5.432;2023-04-23T04:20:43;100614.0;;;27.23;27.68
59654;BME280;66556;52.008;5.432;2023-04-23T04:23:55;100614.0;;;27.47;27.59
59654;BME280;66556;52.008;5.432;2023-04-23T04:25:32;100612.0;;;27.61;27.43
59654;BME280;66556;52.008;5.432;2023-04-23T04:27:08;100613.0;;;27.32;27.88
59654;BME280;66556;52.008;5.432;2023-04-23T04:30:21;100611.0;;;27.25;27.91
59654;BME280;66556;52.008;5.432;2023-04-23T04:31:57;100620.0;;;26.74;28.3
59654;BME280;66556;52.008;5.432;2023-04-23T04:33:34;100618.0;;;26.91;28.04
59654;BME280;66556;52.008;5.432;2023-04-23T04:36:46;100614.0;;;27.03;28.05
59654;BME280;66556;52.008;5.432;2023-04-23T04:38:22;100617.0;;;27.13;28.06
59654;BME280;66556;52.008;5.432;2023-04-23T04:39:58;100618.0;;;27.07;28.04
59654;BME280;66556;52.008;5.432;2023-04-23T04:43:11;100621.0;;;27.41;27.79
59654;BME280;66556;52.008;5.432;2023-04-23T04:44:48;100616.0;;;27.29;27.83
59654;BME280;66556;52.008;5.432;2023-04-23T04:46:24;100617.0;;;27.49;27.83
59654;BME280;66556;52.008;5.432;2023-04-23T04:48:00;100619.0;;;27.43;28.09
59654;BME280;66556;52.008;5.432;2023-04-23T04:51:13;100623.0;;;27.62;27.99
59654;BME280;66556;52.008;5.432;2023-04-23T04:52:50;100630.0;;;27.68;27.99
59654;BME280;66556;52.008;5.432;2023-04-23T04:54:27;100628.0;;;27.62;28.16
59654;BME280;66556;52.008;5.432;2023-04-23T04:57:40;100626.0;;;27.7;27.87
59654;BME280;66556;52.008;5.432;2023-04-23T04:59:17;100626.0;;;27.72;28.22
59654;BME280;66556;52.008;5.432;2023-04-23T05:00:54;100630.0;;;27.69;28.13
59654;BME280;66556;52.008;5.432;2023-04-23T05:02:30;100628.0;;;27.67;28.35
59654;BME280;66556;52.008;5.432;2023-04-23T05:05:43;100623.0;;;27.82;28.1
59654;BME280;66556;52.008;5.432;2023-04-23T05:07:20;100619.0;;;27.27;28.53
59654;BME280;66556;52.008;5.432;2023-04-23T05:08:56;100617.0;;;27.88;27.8
59654;BME280;66556;52.008;5.432;2023-04-23T05:12:08;100618.0;;;27.55;28.43
59654;BME280;66556;52.008;5.432;2023-04-23T05:13:44;100611.0;;;27.42;28.41
59654;BME280;66556;52.008;5.432;2023-04-23T05:15:21;100610.0;;;27.87;27.86
59654;BME280;66556;52.008;5.432;2023-04-23T05:18:34;100612.0;;;27.82;28.09
59654;BME280;66556;52.008;5.432;2023-04-23T05:20:11;100611.0;;;27.65;28.23
59654;BME280;66556;52.008;5.432;2023-04-23T05:21:47;100617.0;;;27.74;27.86
59654;BME280;66556;52.008;5.432;2023-04-23T05:24:59;100620.0;;;27.65;27.8
59654;BME280;66556;52.008;5.432;2023-04-23T05:26:36;100624.0;;;27.45;28.37
59654;BME280;66556;52.008;5.432;2023-04-23T05:28:12;100620.0;;;27.95;27.94
59654;BME280;66556;52.008;5.432;2023-04-23T05:29:49;100619.0;;;28.06;28.32
59654;BME280;66556;52.008;5.432;2023-04-23T05:33:01;100621.0;;;28.26;27.99
59654;BME280;66556;52.008;5.432;2023-04-23T05:34:38;100625.0;;;27.34;29.29
59654;BME280;66556;52.008;5.432;2023-04-23T05:36:15;100626.0;;;28.37;28.23
59654;BME280;66556;52.008;5.432;2023-04-23T05:39:27;100623.0;;;28.24;28.45
59654;BME280;66556;52.008;5.432;2023-04-23T05:41:03;100618.0;;;28.43;28.49
59654;BME280;66556;52.008;5.432;2023-04-23T05:42:39;100623.0;;;28.44;28.93
59654;BME280;66556;52.008;5.432;2023-04-23T05:45:51;100623.0;;;28.42;28.71
59654;BME280;66556;52.008;5.432;2023-04-23T05:47:28;100623.0;;;28.92;28.1
59654;BME280;66556;52.008;5.432;2023-04-23T05:49:05;100616.0;;;28.88;28.5
59654;BME280;66556;52.008;5.432;2023-04-23T05:50:41;100622.0;;;28.74;28.41
59654;BME280;66556;52.008;5.432;2023-04-23T05:53:54;100625.0;;;27.86;29.47
59654;BME280;66556;52.008;5.432;2023-04-23T05:55:30;100623.0;;;28.31;28.9
59654;BME280;66556;52.008;5.432;2023-04-23T05:57:06;100622.0;;;28.74;28.53
59654;BME280;66556;52.008;5.432;2023-04-23T06:00:18;100621.0;;;29.17;28.37
59654;BME280;66556;52.008;5.432;2023-04-23T06:01:55;100618.0;;;27.71;30.41
59654;BME280;66556;52.008;5.432;2023-04-23T06:03:31;100615.0;;;28.66;28.99
59654;BME280;66556;52.008;5.432;2023-04-23T06:06:44;100613.0;;;29.67;28.1
59654;BME280;66556;52.008;5.432;2023-04-23T06:08:20;100612.0;;;29.62;28.0
59654;BME280;66556;52.008;5.432;2023-04-23T06:09:56;100613.0;;;28.58;29.27
59654;BME280;66556;52.008;5.432;2023-04-23T06:11:33;100609.0;;;29.21;28.48
59654;BME280;66556;52.008;5.432;2023-04-23T06:14:45;100605.0;;;29.16;28.29
59654;BME280;66556;52.008;5.432;2023-04-23T06:16:22;100610.0;;;28.82;29.08
59654;BME280;66556;52.008;5.432;2023-04-23T06:17:59;100605.0;;;29.2;28.74
59654;BME280;66556;52.008;5.432;2023-04-23T06:21:12;100609.0;;;29.09;28.39
59654;BME280;66556;52.008;5.432;2023-04-23T06:22:49;100600.0;;;29.03;28.62
59654;BME280;66556;52.008;5.432;2023-04-23T06:24:25;100601.0;;;29.38;28.54
59654;BME280;66556;52.008;5.432;2023-04-23T06:27:38;100603.0;;;28.74;28.82
59654;BME280;66556;52.008;5.432;2023-04-23T06:29:14;100602.0;;;29.04;28.92
59654;BME280;66556;52.008;5.432;2023-04-23T06:30:51;100603.0;;;28.9;28.64
59654;BME280;66556;52.008;5.432;2023-04-23T06:32:27;100593.0;;;29.29;28.73
59654;BME280;66556;52.008;5.432;2023-04-23T06:35:40;100589.0;;;29.35;28.83
59654;BME280;66556;52.008;5.432;2023-04-23T06:37:16;100588.0;;;29.08;29.45
59654;BME280;66556;52.008;5.432;2023-04-23T06:38:52;100582.0;;;29.01;29.05
59654;BME280;66556;52.008;5.432;2023-04-23T06:42:05;100580.0;;;29.35;28.48
59654;BME280;66556;52.008;5.432;2023-04-23T06:43:41;100580.0;;;29.31;28.66
59654;BME280;66556;52.008;5.432;2023-04-23T06:45:18;100575.0;;;29.71;28.66
59654;BME280;66556;52.008;5.432;2023-04-23T06:48:31;100582.0;;;29.52;28.58
59654;BME280;66556;52.008;5.432;2023-04-23T06:50:08;100576.0;;;29.87;29.01
59654;BME280;66556;52.008;5.432;2023-04-23T06:51:45;100570.0;;;29.89;28.88
59654;BME280;66556;52.008;5.432;2023-04-23T06:54:57;100572.0;;;30.19;27.83
59654;BME280;66556;52.008;5.432;2023-04-23T06:56:33;100574.0;;;30.0;28.44
59654;BME280;66556;52.008;5.432;2023-04-23T06:58:09;100582.0;;;30.21;28.16
59654;BME280;66556;52.008;5.432;2023-04-23T06:59:46;100571.0;;;29.71;28.38
59654;BME280;66556;52.008;5.432;2023-04-23T07:02:59;100567.0;;;30.47;27.78
59654;BME280;66556;52.008;5.432;2023-04-23T07:04:35;100572.0;;;29.97;28.52
59654;BME280;66556;52.008;5.432;2023-04-23T07:06:11;100571.0;;;30.1;27.79
59654;BME280;66556;52.008;5.432;2023-04-23T07:09:25;100577.0;;;29.81;28.61
59654;BME280;66556;52.008;5.432;2023-04-23T07:11:02;100572.0;;;30.76;28.78
59654;BME280;66556;52.008;5.432;2023-04-23T07:12:38;100573.0;;;30.17;27.97
59654;BME280;66556;52.008;5.432;2023-04-23T07:15:51;100572.0;;;30.04;28.41
59654;BME280;66556;52.008;5.432;2023-04-23T07:17:27;100570.0;;;29.67;28.45
59654;BME280;66556;52.008;5.432;2023-04-23T07:19:03;100563.0;;;30.4;27.66
59654;BME280;66556;52.008;5.432;2023-04-23T07:20:40;100565.0;;;29.31;28.93
59654;BME280;66556;52.008;5.432;2023-04-23T07:23:55;100561.0;;;29.08;29.97
59654;BME280;66556;52.008;5.432;2023-04-23T07:25:31;100560.0;;;29.91;29.08
59654;BME280;66556;52.008;5.432;2023-04-23T07:27:07;100563.0;;;31.16;28.26
59654;BME280;66556;52.008;5.432;2023-04-23T07:30:24;100561.0;;;31.12;29.3
59654;BME280;66556;52.008;5.432;2023-04-23T07:32:01;100565.0;;;31.34;26.97
59654;BME280;66556;52.008;5.432;2023-04-23T07:33:37;100561.0;;;30.83;27.29
59654;BME280;66556;52.008;5.432;2023-04-23T07:35:13;100557.0;;;31.1;27.95
59654;BME280;66556;52.008;5.432;2023-04-23T07:38:26;100558.0;;;31.59;26.76
59654;BME280;66556;52.008;5.432;2023-04-23T07:40:03;100556.0;;;32.49;27.56
59654;BME280;66556;52.008;5.432;2023-04-23T07:41:41;100564.0;;;31.08;26.78
59654;BME280;66556;52.008;5.432;2023-04-23T07:44:53;100550.0;;;31.09;26.82
59654;BME280;66556;52.008;5.432;2023-04-23T07:46:30;100565.0;;;31.55;26.26
59654;BME280;66556;52.008;5.432;2023-04-23T07:48:06;100552.0;;;32.61;25.89
59654;BME280;66556;52.008;5.432;2023-04-23T07:51:20;100553.0;;;31.62;25.92
59654;BME280;66556;52.008;5.432;2023-04-23T07:52:57;100548.0;;;32.85;26.3
59654;BME280;66556;52.008;5.432;2023-04-23T07:54:33;100555.0;;;32.06;25.61
59654;BME280;66556;52.008;5.432;2023-04-23T07:56:09;100555.0;;;31.93;25.92
59654;BME280;66556;52.008;5.432;2023-04-23T07:59:23;100551.0;;;32.18;26.41
59654;BME280;66556;52.008;5.432;2023-04-23T08:01:00;100548.0;;;32.22;25.61
59654;BME280;66556;52.008;5.432;2023-04-23T08:02:38;100548.0;;;31.46;26.53
59654;BME280;66556;52.008;5.432;2023-04-23T08:05:50;100545.0;;;32.35;25.77
59654;BME280;66556;52.008;5.432;2023-04-23T08:07:27;100545.0;;;32.0;25.54
59654;BME280;66556;52.008;5.432;2023-04-23T08:09:03;100543.0;;;32.12;25.96
59654;BME280;66556;52.008;5.432;2023-04-23T08:12:17;100544.0;;;31.43;26.37
59654;BME280;66556;52.008;5.432;2023-04-23T08:13:54;100543.0;;;31.11;26.69
59654;BME280;66556;52.008;5.432;2023-04-23T08:15:31;100541.0;;;31.63;26.58
59654;BME280;66556;52.008;5.432;2023-04-23T08:17:08;100539.0;;;31.51;25.94
59654;BME280;66556;52.008;5.432;2023-04-23T08:20:20;100543.0;;;32.17;25.75
59654;BME280;66556;52.008;5.432;2023-04-23T08:21:56;100525.0;;;32.64;26.03
59654;BME280;66556;52.008;5.432;2023-04-23T08:23:33;100536.0;;;32.3;25.15
59654;BME280;66556;52.008;5.432;2023-04-23T08:26:47;100524.0;;;33.31;26.19
59654;BME280;66556;52.008;5.432;2023-04-23T08:28:23;100526.0;;;33.36;25.49
59654;BME280;66556;52.008;5.432;2023-04-23T08:30:00;100532.0;;;32.85;24.64
59654;BME280;66556;52.008;5.432;2023-04-23T08:33:12;100526.0;;;33.21;25.06
59654;BME280;66556;52.008;5.432;2023-04-23T08:34:49;100528.0;;;33.58;24.81
59654;BME280;66556;52.008;5.432;2023-04-23T08:36:25;100530.0;;;34.42;24.16
59654;BME280;66556;52.008;5.432;2023-04-23T08:38:02;100528.0;;;33.92;23.77
59654;BME280;66556;52.008;5.432;2023-04-23T08:41:17;100526.0;;;33.72;24.19
59654;BME280;66556;52.008;5.432;2023-04-23T08:43:01;100531.0;;;32.9;25.46
59654;BME280;66556;52.008;5.432;2023-04-23T08:44:40;100533.0;;;32.74;24.84
59654;BME280;66556;52.008;5.432;2023-04-23T08:47:57;100528.0;;;32.29;27.21
59654;BME280;66556;52.008;5.432;2023-04-23T08:49:36;100525.0;;;33.07;24.41
59654;BME280;66556;52.008;5.432;2023-04-23T08:51:17;100530.0;;;32.86;24.46
59654;BME280;66556;52.008;5.432;2023-04-23T08:52:57;100530.0;;;31.96;25.23
59654;BME280;66556;52.008;5.432;2023-04-23T08:56:12;100530.0;;;31.77;25.47
59654;BME280;66556;52.008;5.432;2023-04-23T08:57:50;100520.0;;;32.78;25.01
59654;BME280;66556;52.008;5.432;2023-04-23T08:59:29;100515.0;;;32.9;24.66
59654;BME280;66556;52.008;5.432;2023-04-23T09:01:06;100528.0;;;32.53;24.98
59654;BME280;66556;52.008;5.432;2023-04-23T09:04:21;100516.0;;;33.49;24.96
59654;BME280;66556;52.008;5.432;2023-04-23T09:05:57;100512.0;;;34.81;23.96
59654;BME280;66556;52.008;5.432;2023-04-23T09:07:35;100517.0;;;34.29;22.47
59654;BME280;66556;52.008;5.432;2023-04-23T09:10:53;100517.0;;;35.46;22.97
59654;BME280;66556;52.008;5.432;2023-04-23T09:12:34;100524.0;;;33.81;22.94
59654;BME280;66556;52.008;5.432;2023-04-23T09:14:11;100517.0;;;33.96;23.53
59654;BME280;66556;52.008;5.432;2023-04-23T09:15:48;100519.0;;;33.03;23.79
59654;BME280;66556;52.008;5.432;2023-04-23T09:19:04;100517.0;;;33.08;23.86
59654;BME280;66556;52.008;5.432;2023-04-23T09:22:51;100513.0;;;33.18;23.81
59654;BME280;66556;52.008;5.432;2023-04-23T09:24:28;100507.0;;;33.24;23.15
59654;BME280;66556;52.008;5.432;2023-04-23T09:27:42;100514.0;;;32.74;23.89
59654;BME280;66556;52.008;5.432;2023-04-23T09:29:21;100513.0;;;31.96;25.91
59654;BME280;66556;52.008;5.432;2023-04-23T09:30:58;100505.0;;;33.03;26.23
59654;BME280;66556;52.008;5.432;2023-04-23T09:32:35;100503.0;;;33.82;25.03
59654;BME280;66556;52.008;5.432;2023-04-23T09:35:50;100505.0;;;33.18;23.54
59654;BME280;66556;52.008;5.432;2023-04-23T09:37:27;100498.0;;;33.22;24.86
59654;BME280;66556;52.008;5.432;2023-04-23T09:39:11;100502.0;;;33.06;24.73
59654;BME280;66556;52.008;5.432;2023-04-23T09:40:49;100501.0;;;34.04;24.95
59654;BME280;66556;52.008;5.432;2023-04-23T09:44:02;100500.0;;;33.43;23.06
59654;BME280;66556;52.008;5.432;2023-04-23T09:45:46;100500.0;;;34.24;23.81
59654;BME280;66556;52.008;5.432;2023-04-23T09:47:24;100511.0;;;33.12;24.35
59654;BME280;66556;52.008;5.432;2023-04-23T09:50:39;100509.0;;;33.33;25.01
59654;BME280;66556;52.008;5.432;2023-04-23T09:52:16;100503.0;;;34.35;23.24
59654;BME280;66556;52.008;5.432;2023-04-23T09:53:53;100501.0;;;32.85;24.45
59654;BME280;66556;52.008;5.432;2023-04-23T09:55:30;100499.0;;;33.19;24.62
59654;BME280;66556;52.008;5.432;2023-04-23T09:58:44;100494.0;;;33.39;22.56
59654;BME280;66556;52.008;5.432;2023-04-23T10:00:21;100493.0;;;33.82;23.06
59654;BME280;66556;52.008;5.432;2023-04-23T10:02:01;100497.0;;;33.17;23.12
59654;BME280;66556;52.008;5.432;2023-04-23T10:05:19;100503.0;;;32.69;23.1
59654;BME280;66556;52.008;5.432;2023-04-23T10:06:56;100506.0;;;32.75;23.87
59654;BME280;66556;52.008;5.432;2023-04-23T10:08:34;100499.0;;;31.58;24.56
59654;BME280;66556;52.008;5.432;2023-04-23T10:10:11;100485.0;;;32.49;23.95
59654;BME280;66556;52.008;5.432;2023-04-23T10:13:27;100485.0;;;33.1;24.19
59654;BME280;66556;52.008;5.432;2023-04-23T10:15:03;100480.0;;;33.37;23.5
59654;BME280;66556;52.008;5.432;2023-04-23T10:16:42;100480.0;;;33.55;23.14
59654;BME280;66556;52.008;5.432;2023-04-23T10:19:57;100484.0;;;34.24;22.42
59654;BME280;66556;52.008;5.432;2023-04-23T10:21:37;100493.0;;;33.79;22.2
59654;BME280;66556;52.008;5.432;2023-04-23T10:23:14;100488.0;;;32.22;22.92
59654;BME280;66556;52.008;5.432;2023-04-23T10:24:56;100491.0;;;31.05;25.54
59654;BME280;66556;52.008;5.432;2023-04-23T10:28:16;100493.0;;;31.44;26.32
59654;BME280;66556;52.008;5.432;2023-04-23T10:29:56;100489.0;;;32.07;23.8
59654;BME280;66556;52.008;5.432;2023-04-23T10:31:32;100481.0;;;32.71;23.91
59654;BME280;66556;52.008;5.432;2023-04-23T10:33:10;100484.0;;;32.35;23.94
59654;BME280;66556;52.008;5.432;2023-04-23T10:36:24;100483.0;;;33.14;22.94
59654;BME280;66556;52.008;5.432;2023-04-23T10:38:02;100468.0;;;33.19;23.45
59654;BME280;66556;52.008;5.432;2023-04-23T10:39:43;100473.0;;;32.82;24.05
59654;BME280;66556;52.008;5.432;2023-04-23T10:43:02;100477.0;;;32.43;24.37
59654;BME280;66556;52.008;5.432;2023-04-23T10:44:41;100483.0;;;30.98;23.74
59654;BME280;66556;52.008;5.432;2023-04-23T10:46:34;100469.0;;;31.42;24.01
59654;BME280;66556;52.008;5.432;2023-04-23T10:48:11;100458.0;;;32.17;24.23
59654;BME280;66556;52.008;5.432;2023-04-23T10:49:48;100456.0;;;32.37;23.27
59654;BME280;66556;52.008;5.432;2023-04-23T10:53:17;100453.0;;;32.62;22.55
59654;BME280;66556;52.008;5.432;2023-04-23T10:54:56;100451.0;;;32.74;23.42
59654;BME280;66556;52.008;5.432;2023-04-23T10:56:33;100452.0;;;32.32;23.05
59654;BME280;66556;52.008;5.432;2023-04-23T10:59:51;100443.0;;;32.89;22.45
59654;BME280;66556;52.008;5.432;2023-04-23T11:01:28;100440.0;;;32.57;22.02
59654;BME280;66556;52.008;5.432;2023-04-23T11:03:04;100436.0;;;32.96;22.41
59654;BME280;66556;52.008;5.432;2023-04-23T11:04:41;100447.0;;;33.06;22.85
59654;BME280;66556;52.008;5.432;2023-04-23T11:08:28;100433.0;;;32.96;22.43
59654;BME280;66556;52.008;5.432;2023-04-23T11:10:10;100435.0;;;32.53;22.11
59654;BME280;66556;52.008;5.432;2023-04-23T11:11:47;100426.0;;;33.12;22.16